createdAt,value
2022-08-20T00:01:01.576Z,13.65
2022-08-20T00:03:53.340Z,13.98
2022-08-20T00:06:40.764Z,13.80
2022-08-20T00:09:27.049Z,14.30
2022-08-20T00:12:17.407Z,14.48
2022-08-20T00:15:05.982Z,14.75
2022-08-20T00:17:52.627Z,14.85
2022-08-20T00:20:46.326Z,15.20
2022-08-20T00:23:32.638Z,15.10
2022-08-20T00:26:19.417Z,16.70
2022-08-20T00:29:05.664Z,16.52
2022-08-20T00:31:51.787Z,16.15
2022-08-20T00:34:37.662Z,16.63
2022-08-20T00:37:23.752Z,17.55
2022-08-20T00:40:22.100Z,17.33
2022-08-20T00:43:32.316Z,17.58
2022-08-20T00:46:30.893Z,17.92
2022-08-20T00:49:25.939Z,17.80
2022-08-20T00:52:17.683Z,19.20
2022-08-20T00:55:06.561Z,19.60
2022-08-20T00:58:01.568Z,20.15
2022-08-20T01:00:49.786Z,21.08
2022-08-20T01:03:36.324Z,21.10
2022-08-20T01:06:24.837Z,21.27
2022-08-20T01:09:11.337Z,21.63
2022-08-20T01:11:57.951Z,22.08
2022-08-20T01:14:45.384Z,22.33
2022-08-20T01:17:34.930Z,22.90
2022-08-20T01:20:28.685Z,22.08
2022-08-20T01:23:32.384Z,25.02
2022-08-20T01:26:26.788Z,23.73
2022-08-20T01:29:23.109Z,24.55
2022-08-20T01:32:09.286Z,24.92
2022-08-20T01:34:55.280Z,24.55
2022-08-20T01:37:42.629Z,24.00
2022-08-20T01:41:04.331Z,25.07
2022-08-20T01:43:56.936Z,23.92
2022-08-20T01:46:46.913Z,25.75
2022-08-20T01:49:35.322Z,25.60
2022-08-20T01:52:32.492Z,24.85
2022-08-20T01:55:18.493Z,24.40
2022-08-20T01:58:05.318Z,25.52
2022-08-20T02:00:51.524Z,25.02
2022-08-20T02:03:40.739Z,25.77
2022-08-20T02:06:33.701Z,27.20
2022-08-20T02:09:19.990Z,26.58
2022-08-20T02:12:09.537Z,25.83
2022-08-20T02:14:56.952Z,24.55
2022-08-20T02:17:43.388Z,26.48
2022-08-20T02:20:31.880Z,26.35
2022-08-20T02:23:20.078Z,26.80
2022-08-20T02:28:54.970Z,27.40
2022-08-20T02:32:24.984Z,27.27
2022-08-20T02:34:51.038Z,28.02
2022-08-20T02:37:37.823Z,27.20
2022-08-20T02:43:19.366Z,27.85
2022-08-20T02:46:07.582Z,30.58
2022-08-20T02:48:53.793Z,30.33
2022-08-20T02:51:39.945Z,30.00
2022-08-20T02:54:25.847Z,29.93
2022-08-20T02:57:16.633Z,29.00
2022-08-20T03:00:04.464Z,28.23
2022-08-20T03:02:51.257Z,28.88
2022-08-20T03:08:26.270Z,28.63
2022-08-20T03:13:57.956Z,28.67
2022-08-20T03:16:44.305Z,30.15
2022-08-20T03:19:30.202Z,29.17
2022-08-20T03:22:16.358Z,29.02
2022-08-20T03:25:02.212Z,29.33
2022-08-20T03:27:54.613Z,31.33
2022-08-20T03:30:41.657Z,29.00
2022-08-20T03:36:14.558Z,28.60
2022-08-20T03:39:11.717Z,30.00
2022-08-20T03:41:58.075Z,30.13
2022-08-20T03:44:44.018Z,30.20
2022-08-20T03:47:30.065Z,31.23
2022-08-20T03:50:23.241Z,29.38
2022-08-20T03:53:13.133Z,29.00
2022-08-20T03:56:05.330Z,29.45
2022-08-20T03:58:51.559Z,29.15
2022-08-20T04:01:46.088Z,27.70
2022-08-20T04:04:33.020Z,30.10
2022-08-20T04:07:25.814Z,28.65
2022-08-20T04:10:12.582Z,27.92
2022-08-20T04:12:59.005Z,26.90
2022-08-20T04:15:45.687Z,27.77
2022-08-20T04:18:32.525Z,27.55
2022-08-20T04:21:18.506Z,26.63
2022-08-20T04:24:05.890Z,28.03
2022-08-20T04:26:52.650Z,27.90
2022-08-20T04:32:29.193Z,26.13
2022-08-20T04:35:18.066Z,26.67
2022-08-20T04:38:07.504Z,27.05
2022-08-20T04:40:54.064Z,26.88
2022-08-20T04:46:28.651Z,26.63
2022-08-20T04:49:15.495Z,26.50
2022-08-20T04:52:03.256Z,27.70
2022-08-20T04:54:49.473Z,28.58
2022-08-20T04:57:38.324Z,28.45
2022-08-20T05:00:24.205Z,26.67
2022-08-20T05:03:10.028Z,27.00
2022-08-20T05:05:56.923Z,27.10
2022-08-20T05:08:44.118Z,27.02
2022-08-20T05:11:35.272Z,26.02
2022-08-20T05:14:22.858Z,24.80
2022-08-20T05:17:08.825Z,25.23
2022-08-20T05:19:55.003Z,23.50
2022-08-20T05:22:41.253Z,24.50
2022-08-20T05:25:30.944Z,24.50
2022-08-20T05:28:24.471Z,24.17
2022-08-20T05:31:10.486Z,23.60
2022-08-20T05:33:57.813Z,23.25
2022-08-20T05:36:49.046Z,24.80
2022-08-20T05:39:37.449Z,22.73
2022-08-20T05:42:23.870Z,24.30
2022-08-20T05:45:11.135Z,25.25
2022-08-20T05:47:58.610Z,22.60
2022-08-20T05:50:51.686Z,22.27
2022-08-20T05:53:37.615Z,22.98
2022-08-20T05:56:26.820Z,24.45
2022-08-20T05:59:14.117Z,22.88
2022-08-20T06:02:00.520Z,23.00
2022-08-20T06:04:46.365Z,22.23
2022-08-20T06:07:42.844Z,23.02
2022-08-20T06:10:28.858Z,21.70
2022-08-20T06:13:14.882Z,21.37
2022-08-20T06:16:01.988Z,22.25
2022-08-20T06:18:53.143Z,20.88
2022-08-20T06:21:44.094Z,22.17
2022-08-20T06:24:30.538Z,21.70
2022-08-20T06:27:17.196Z,22.73
2022-08-20T06:30:04.508Z,22.15
2022-08-20T06:32:51.328Z,22.50
2022-08-20T06:35:37.814Z,20.65
2022-08-20T06:38:23.797Z,20.20
2022-08-20T06:41:09.859Z,19.52
2022-08-20T06:43:56.411Z,19.27
2022-08-20T06:46:43.884Z,17.90
2022-08-20T06:49:34.228Z,18.00
2022-08-20T06:52:41.601Z,18.17
2022-08-20T06:55:29.971Z,17.17
2022-08-20T06:58:35.729Z,17.50
2022-08-20T07:01:23.026Z,17.92
2022-08-20T07:04:09.665Z,17.13
2022-08-20T07:06:57.644Z,16.75
2022-08-20T07:09:43.999Z,16.13
2022-08-20T07:12:29.985Z,15.75
2022-08-20T07:15:16.120Z,15.98
2022-08-20T07:18:04.385Z,16.60
2022-08-20T07:20:50.781Z,16.42
2022-08-20T07:23:36.960Z,16.52
2022-08-20T07:26:23.563Z,16.50
2022-08-20T07:29:09.890Z,15.82
2022-08-20T07:32:14.462Z,15.35
2022-08-20T07:35:01.501Z,15.98
2022-08-20T07:37:51.782Z,15.80
2022-08-20T07:40:37.592Z,15.45
2022-08-20T07:43:24.607Z,15.82
2022-08-20T07:48:56.550Z,15.68
2022-08-20T07:51:42.903Z,16.38
2022-08-20T07:54:30.405Z,16.08
2022-08-20T07:57:17.355Z,15.77
2022-08-20T08:00:09.077Z,15.30
2022-08-20T08:02:55.677Z,15.02
2022-08-20T08:05:45.369Z,15.68
2022-08-20T08:08:33.370Z,14.43
2022-08-20T08:11:19.553Z,14.43
2022-08-20T08:14:09.862Z,13.70
2022-08-20T08:16:59.806Z,13.50
2022-08-20T08:19:49.223Z,13.90
2022-08-20T08:22:36.098Z,14.35
2022-08-20T08:25:22.331Z,14.48
2022-08-20T08:28:11.122Z,14.52
2022-08-20T08:30:57.763Z,13.15
2022-08-20T08:33:43.820Z,13.32
2022-08-20T08:36:30.179Z,13.57
2022-08-20T08:39:16.218Z,13.82
2022-08-20T08:42:03.777Z,13.32
2022-08-20T08:44:50.806Z,12.68
2022-08-20T08:47:39.396Z,12.95
2022-08-20T08:50:53.499Z,12.10
2022-08-20T08:53:43.734Z,13.05
2022-08-20T08:56:31.082Z,13.10
2022-08-20T08:59:18.892Z,12.77
2022-08-20T09:02:06.903Z,12.65
2022-08-20T09:04:56.028Z,13.95
2022-08-20T09:07:48.290Z,14.73
2022-08-20T09:10:34.688Z,13.93
2022-08-20T09:13:20.577Z,13.93
2022-08-20T09:16:06.769Z,14.65
2022-08-20T09:18:53.277Z,15.70
2022-08-20T09:21:39.564Z,15.32
2022-08-20T09:24:25.972Z,15.00
2022-08-20T09:27:12.335Z,17.60
2022-08-20T09:29:58.498Z,15.52
2022-08-20T09:32:44.838Z,15.93
2022-08-20T09:35:31.352Z,16.05
2022-08-20T09:38:17.986Z,17.02
2022-08-20T09:41:04.153Z,16.63
2022-08-20T09:43:50.024Z,18.45
2022-08-20T09:46:36.248Z,19.10
2022-08-20T09:49:22.452Z,18.80
2022-08-20T09:52:11.676Z,18.57
2022-08-20T09:55:04.812Z,18.60
2022-08-20T09:57:52.764Z,19.35
2022-08-20T10:00:40.322Z,19.58
2022-08-20T10:03:26.776Z,19.67
2022-08-20T10:06:14.793Z,18.13
2022-08-20T10:09:03.242Z,18.85
2022-08-20T10:11:49.536Z,17.73
2022-08-20T10:14:35.469Z,18.70
2022-08-20T10:17:21.533Z,19.63
2022-08-20T10:20:09.862Z,18.95
2022-08-20T10:22:56.026Z,20.35
2022-08-20T10:25:42.878Z,20.60
2022-08-20T10:28:28.850Z,19.67
2022-08-20T10:31:15.476Z,20.70
2022-08-20T10:34:01.653Z,19.10
2022-08-20T10:36:47.658Z,21.47
2022-08-20T10:39:34.385Z,20.13
2022-08-20T10:42:20.654Z,19.42
2022-08-20T10:45:06.934Z,21.48
2022-08-20T10:47:53.161Z,20.08
2022-08-20T10:50:39.710Z,18.92
2022-08-20T10:53:25.748Z,19.52
2022-08-20T10:56:15.429Z,19.87
2022-08-20T10:59:01.721Z,20.40
2022-08-20T11:01:47.905Z,21.88
2022-08-20T11:04:34.458Z,22.83
2022-08-20T11:07:50.031Z,21.52
2022-08-20T11:10:34.689Z,21.65
2022-08-20T11:13:20.888Z,20.67
2022-08-20T11:16:07.326Z,20.17
2022-08-20T11:18:53.480Z,20.27
2022-08-20T11:21:39.465Z,20.60
2022-08-20T11:24:25.531Z,21.00
2022-08-20T11:27:21.315Z,18.58
2022-08-20T11:30:11.150Z,21.48
2022-08-20T11:32:58.725Z,22.55
2022-08-20T11:35:49.766Z,23.77
2022-08-20T11:38:36.620Z,22.90
2022-08-20T11:41:22.531Z,20.17
2022-08-20T11:44:20.244Z,22.07
2022-08-20T11:47:08.454Z,20.05
2022-08-20T11:50:06.964Z,21.80
2022-08-20T11:52:53.410Z,21.00
2022-08-20T11:55:39.971Z,20.23
2022-08-20T11:58:26.229Z,21.13
2022-08-20T12:01:12.515Z,22.15
2022-08-20T12:03:58.733Z,21.35
2022-08-20T12:06:44.562Z,22.40
2022-08-20T12:09:30.565Z,21.35
2022-08-20T12:12:18.198Z,20.43
2022-08-20T12:15:06.107Z,21.08
2022-08-20T12:17:52.462Z,19.55
2022-08-20T12:20:38.806Z,19.65
2022-08-20T12:23:24.748Z,19.88
2022-08-20T12:26:11.088Z,20.75
2022-08-20T12:28:57.289Z,18.38
2022-08-20T12:31:43.151Z,19.47
2022-08-20T12:34:29.190Z,20.58
2022-08-20T12:37:22.013Z,20.63
2022-08-20T12:40:15.512Z,19.35
2022-08-20T12:43:03.446Z,19.15
2022-08-20T12:45:49.651Z,19.65
2022-08-20T12:48:35.474Z,18.33
2022-08-20T12:51:21.316Z,17.40
2022-08-20T12:54:07.460Z,18.48
2022-08-20T12:56:53.688Z,15.90
2022-08-20T12:59:39.604Z,15.48
2022-08-20T13:02:25.946Z,16.98
2022-08-20T13:05:14.086Z,15.68
2022-08-20T13:08:00.559Z,13.18
2022-08-20T13:10:47.042Z,12.30
2022-08-20T13:13:32.982Z,11.02
2022-08-20T13:16:18.858Z,11.73
2022-08-20T13:19:04.930Z,11.57
2022-08-20T13:21:54.846Z,10.65
2022-08-20T13:24:42.484Z,10.77
2022-08-20T13:30:18.181Z,10.15
2022-08-20T13:33:04.629Z,10.48
2022-08-20T13:35:50.494Z,11.93
2022-08-20T13:38:36.560Z,11.63
2022-08-20T13:41:22.501Z,11.00
2022-08-20T13:44:08.281Z,11.95
2022-08-20T13:46:54.486Z,11.60
2022-08-20T13:49:40.821Z,12.13
2022-08-20T13:52:27.489Z,10.25
2022-08-20T13:55:16.379Z,10.32
2022-08-20T13:58:05.943Z,9.70
2022-08-20T14:00:52.938Z,9.65
2022-08-20T14:03:39.159Z,9.55
2022-08-20T14:06:29.017Z,7.85
2022-08-20T14:09:15.243Z,7.50
2022-08-20T14:12:01.650Z,8.35
2022-08-20T14:14:47.534Z,8.93
2022-08-20T14:17:39.013Z,7.87
2022-08-20T14:20:32.630Z,9.05
2022-08-20T14:23:18.895Z,5.35
2022-08-20T14:26:05.106Z,3.13
2022-08-20T14:28:51.069Z,2.80
2022-08-20T14:31:36.961Z,3.97
2022-08-20T14:34:22.854Z,5.10
2022-08-20T14:37:22.466Z,6.28
2022-08-20T14:40:12.376Z,5.47
2022-08-20T14:42:58.661Z,7.60
2022-08-20T14:45:45.138Z,6.50
2022-08-20T14:48:31.053Z,6.17
2022-08-20T14:51:16.948Z,6.22
2022-08-20T14:54:02.945Z,6.40
2022-08-20T14:56:48.865Z,6.40
2022-08-20T14:59:36.765Z,9.35
2022-08-20T15:02:22.793Z,6.65
2022-08-20T15:05:09.305Z,4.53
2022-08-20T15:07:56.901Z,4.13
2022-08-20T15:10:43.109Z,2.80
2022-08-20T15:13:30.233Z,2.50
2022-08-20T15:16:16.553Z,2.08
2022-08-20T15:19:02.890Z,2.13
2022-08-20T15:21:49.003Z,2.03
2022-08-20T15:24:34.989Z,2.30
2022-08-20T15:27:23.597Z,2.50
2022-08-20T15:30:16.127Z,2.55
2022-08-20T15:33:02.777Z,2.90
2022-08-20T15:35:49.426Z,2.92
2022-08-20T15:38:36.456Z,2.90
2022-08-20T15:41:22.587Z,2.60
2022-08-20T15:44:08.451Z,2.83
2022-08-20T15:46:54.493Z,3.30
2022-08-20T15:49:40.749Z,2.40
2022-08-20T15:52:31.242Z,2.92
2022-08-20T15:55:17.910Z,2.45
2022-08-20T15:58:17.542Z,2.33
2022-08-20T16:01:28.543Z,2.13
2022-08-20T16:04:45.036Z,2.60
2022-08-20T16:07:34.354Z,2.30
2022-08-20T16:10:32.804Z,2.50
2022-08-20T16:13:33.588Z,1.98
2022-08-20T16:16:36.054Z,2.08
2022-08-20T16:19:25.531Z,2.10
2022-08-20T16:22:14.546Z,2.40
2022-08-20T16:25:01.637Z,2.28
2022-08-20T16:28:06.038Z,2.30
2022-08-20T16:31:06.411Z,2.25
2022-08-20T16:33:56.693Z,3.08
2022-08-20T16:37:00.771Z,2.60
2022-08-20T16:40:03.250Z,2.70
2022-08-20T16:42:53.960Z,2.67
2022-08-20T16:45:50.974Z,2.88
2022-08-20T16:48:41.256Z,2.40
2022-08-20T16:51:38.156Z,2.80
2022-08-20T16:54:29.439Z,2.60
2022-08-20T16:57:19.780Z,3.08
2022-08-20T17:00:24.463Z,2.80
2022-08-20T17:03:33.339Z,2.92
2022-08-20T17:06:37.646Z,3.08
2022-08-20T17:09:42.697Z,3.30
2022-08-20T17:12:30.322Z,2.97
2022-08-20T17:15:23.564Z,3.30
2022-08-20T17:18:38.477Z,2.95
2022-08-20T17:21:25.781Z,3.70
2022-08-20T17:24:16.532Z,3.63
2022-08-20T17:27:10.630Z,3.53
2022-08-20T17:30:10.169Z,3.70
2022-08-20T17:33:19.149Z,3.70
2022-08-20T17:36:13.964Z,3.75
2022-08-20T17:39:01.482Z,3.35
2022-08-20T17:41:52.116Z,3.72
2022-08-20T17:44:43.026Z,3.75
2022-08-20T17:47:34.810Z,3.90
2022-08-20T17:50:29.933Z,3.88
2022-08-20T17:53:28.065Z,3.85
2022-08-20T17:56:21.374Z,4.13
2022-08-20T17:59:19.031Z,4.43
2022-08-20T18:02:18.643Z,5.28
2022-08-20T18:05:13.434Z,5.25
2022-08-20T18:08:18.061Z,4.68
2022-08-20T18:11:19.802Z,5.05
2022-08-20T18:14:40.566Z,5.10
2022-08-20T18:17:51.752Z,5.05
2022-08-20T18:20:59.380Z,4.68
2022-08-20T18:26:45.917Z,4.50
2022-08-20T18:29:34.941Z,5.07
2022-08-20T18:32:35.217Z,5.15
2022-08-20T18:35:33.380Z,4.90
2022-08-20T18:38:22.602Z,5.25
2022-08-20T18:41:12.797Z,5.47
2022-08-20T18:44:15.370Z,4.80
2022-08-20T18:47:04.713Z,5.20
2022-08-20T18:50:16.638Z,5.65
2022-08-20T18:53:17.237Z,5.65
2022-08-20T18:56:07.460Z,5.15
2022-08-20T18:59:14.526Z,5.15
2022-08-20T19:02:22.167Z,5.57
2022-08-20T19:05:12.209Z,5.85
2022-08-20T19:08:02.449Z,5.70
2022-08-20T19:11:02.946Z,4.97
2022-08-20T19:13:54.806Z,5.47
2022-08-20T19:16:47.625Z,6.20
2022-08-20T19:19:34.017Z,6.40
2022-08-20T19:22:21.182Z,5.45
2022-08-20T19:25:08.561Z,5.70
2022-08-20T19:27:57.326Z,5.47
2022-08-20T19:30:43.861Z,5.57
2022-08-20T19:33:35.006Z,6.00
2022-08-20T19:36:31.682Z,5.25
2022-08-20T19:39:20.631Z,5.78
2022-08-20T19:42:24.239Z,5.55
2022-08-20T19:45:23.724Z,6.10
2022-08-20T19:48:49.344Z,5.88
2022-08-20T19:51:48.090Z,6.80
2022-08-20T19:54:48.326Z,6.63
2022-08-20T19:57:34.822Z,6.90
2022-08-20T20:00:22.906Z,7.00
2022-08-20T20:03:19.097Z,7.30
2022-08-20T20:06:18.376Z,7.25
2022-08-20T20:09:08.665Z,7.07
2022-08-20T20:11:56.940Z,6.63
2022-08-20T20:14:44.433Z,6.50
2022-08-20T20:17:34.880Z,7.50
2022-08-20T20:20:32.996Z,6.25
2022-08-20T20:23:45.841Z,6.57
2022-08-20T20:26:36.618Z,6.13
2022-08-20T20:29:36.687Z,6.03
2022-08-20T20:32:25.084Z,6.25
2022-08-20T20:35:25.510Z,6.18
2022-08-20T20:38:24.528Z,6.20
2022-08-20T20:41:21.725Z,5.75
2022-08-20T20:44:19.646Z,5.45
2022-08-20T20:47:19.265Z,5.47
2022-08-20T20:50:07.792Z,5.40
2022-08-20T20:52:55.533Z,5.78
2022-08-20T20:55:52.758Z,5.00
2022-08-20T20:58:39.037Z,5.50
2022-08-20T21:01:45.747Z,5.32
2022-08-20T21:04:32.357Z,4.93
2022-08-20T21:07:22.327Z,4.70
2022-08-20T21:10:08.502Z,4.15
2022-08-20T21:12:55.453Z,4.13
2022-08-20T21:15:41.939Z,4.20
2022-08-20T21:18:28.185Z,4.07
2022-08-20T21:21:14.948Z,3.85
2022-08-20T21:24:01.243Z,3.95
2022-08-20T21:26:48.702Z,3.72
2022-08-20T21:29:35.509Z,3.60
2022-08-20T21:32:21.777Z,3.60
2022-08-20T21:35:10.001Z,3.60
2022-08-20T21:37:56.042Z,3.38
2022-08-20T21:40:42.029Z,3.20
2022-08-20T21:43:32.686Z,3.33
2022-08-20T21:46:19.792Z,3.35
2022-08-20T21:49:11.349Z,3.33
2022-08-20T21:51:57.993Z,3.77
2022-08-20T21:54:44.446Z,3.05
2022-08-20T21:57:33.269Z,3.08
2022-08-20T22:00:54.621Z,3.03
2022-08-20T22:03:41.217Z,3.33
2022-08-20T22:06:27.413Z,3.03
2022-08-20T22:09:14.473Z,3.25
2022-08-20T22:14:47.138Z,3.13
2022-08-20T22:17:33.542Z,2.83
2022-08-20T22:20:19.449Z,3.10
2022-08-20T22:23:06.392Z,2.85
2022-08-20T22:25:52.715Z,3.30
2022-08-20T22:28:39.198Z,2.85
2022-08-20T22:31:31.545Z,2.55
2022-08-20T22:34:19.784Z,2.60
2022-08-20T22:37:06.253Z,2.72
2022-08-20T22:39:52.447Z,2.35
2022-08-20T22:42:38.833Z,2.42
2022-08-20T22:45:24.940Z,2.60
2022-08-20T22:48:20.846Z,2.23
2022-08-20T22:51:07.346Z,2.90
2022-08-20T22:53:53.593Z,2.50
2022-08-20T22:56:39.797Z,2.33
2022-08-20T22:59:27.825Z,2.17
2022-08-20T23:02:18.685Z,2.45
2022-08-20T23:05:05.537Z,2.10
2022-08-20T23:07:54.275Z,2.28
2022-08-20T23:10:41.230Z,2.08
2022-08-20T23:16:13.598Z,2.00
2022-08-20T23:19:00.793Z,2.03
2022-08-20T23:24:32.880Z,1.98
2022-08-20T23:27:21.067Z,2.00
2022-08-20T23:30:07.738Z,1.92
2022-08-20T23:32:54.215Z,2.38
2022-08-20T23:35:41.044Z,2.15
2022-08-20T23:38:27.404Z,2.30
2022-08-20T23:41:13.374Z,2.30
2022-08-20T23:43:59.812Z,1.95
2022-08-20T23:46:46.494Z,2.03
2022-08-20T23:49:32.783Z,2.42
2022-08-20T23:52:19.288Z,2.00
2022-08-20T23:55:06.262Z,2.10
2022-08-20T23:57:52.667Z,2.30
